Fahad Al-Ahmadi

Chefscout - Hajer
3 Dez 2028
Sonntag
Verarbeitung

Persönlichkeit

Anpassungsfähigkeit (9) Ehrgeiz (8) Kontroverse (9) Loyalität (8) Druck (19) Professionalität (11) Fairness (14) Temperament (3)

Profil

Trainerstil Demokratisch
Lizenz Nationale B
Entschlossenheit 9
Menschenführung 4
Motivation 3
Disziplin 3
Arbeitszufriedenheit
100%
Ermüdung
0%
Rolle Chefscout
Gehalt 11.1K p/W
Vertrag 14.03.2030

Leistung

Verhalten Gut
Trainingseffektivität
33%
Spielerentwicklung
15%
Verletzungsprävention
40%
Taktische Umsetzung
20%

Letzte Ereignisse

Nahm an einer Scouting-Besprechung teil 7T her
Nahm an einer Scouting-Besprechung teil 14T her
Nahm an einer Scouting-Besprechung teil 21T her
Nahm an einer Scouting-Besprechung teil 28T her
Nahm an einer Scouting-Besprechung teil 35T her
Nahm an einer Scouting-Besprechung teil 42T her
Nahm an einer Scouting-Besprechung teil 49T her
Nahm an einer Scouting-Besprechung teil 56T her

Aktuell beobachtet

108
Spieler Verein Status Fähigkeit Vertrauen Beobachtet Zuletzt beobachtet Letzte Stimme
Tristan Crama Wycombe Wanderers Aktiv 128 / 127 40% 1 31.05.2028 -
Matthew Craig Newport County Aktiv 113 / 114 40% 1 31.05.2028 -
Morad Khodari Najran Aktiv 114 / 110 40% 1 25.12.2027 -
Andrea Adorante Venezia Aktiv 116 / 134 40% 1 24.12.2027 -
Gustavo Viera Cerro Largo Aktiv 114 / 108 40% 1 22.12.2027 -
Paolo Yrizar Chernomorets Aktiv 95 / 105 40% 2 20.12.2027 -
Camilo Machado Madryn Aktiv 90 / 115 40% 3 16.12.2027 -
Dylan Cabral Arsenal Aktiv 101 / 96 40% 2 15.12.2027 -
Prince Ibara Al-Njoom Aktiv 114 / 114 40% 1 13.12.2027 -
Tenton Yenne Baltika Aktiv 103 / 111 40% 1 09.12.2027 -
Yegor Kortsov Dinamo Brest Aktiv 107 / 101 40% 3 07.12.2027 -
Matías Samaniego Talleres Aktiv 107 / 86 40% 1 01.12.2027 -
Brayan Gil Baltika Aktiv 107 / 125 40% 4 29.11.2027 -
Denis M. Kovalevich Dinamo Brest Aktiv 101 / 98 40% 5 25.11.2027 -
Timur Suleimanov Nizhniy Novgorod Aktiv 101 / 132 40% 1 19.11.2027 -
Miro Arsenal Tula Aktiv 129 / 123 40% 1 19.11.2027 -
John Valladares Santiago Wanderers Aktiv 105 / 107 40% 1 10.11.2027 -
Daniel Barrea Godoy Cruz Aktiv 122 / 128 40% 3 08.11.2027 -
Santiago Guzmán Wanderers Aktiv 110 / 103 40% 6 04.11.2027 -
François Kamano Sochi Aktiv 120 / 128 40% 1 02.11.2027 -
Steven Alfred Torpedo-BelAZ Aktiv 83 / 93 40% 3 28.10.2027 -
Agustín Dávila Cerro Largo Aktiv 80 / 98 40% 2 20.10.2027 -
Andrey Solovey Slavia Mozyr Aktiv 91 / 94 40% 3 16.10.2027 -
Kirill Tsepenkov Dnepr Mogilev Aktiv 83 / 87 40% 1 16.10.2027 -
Timofey Simanenka Gomel Aktiv 89 / 112 40% 1 02.10.2027 -
Juan David Rueda Alianza Petrolera Aktiv 106 / 106 40% 2 30.09.2027 -
Karen Vardanyan Dinamo Minsk Aktiv 110 / 91 40% 2 14.09.2027 -
Evgeniy Shevchenko Slavia Mozyr Aktiv 81 / 85 40% 1 08.09.2027 -
Tiago Pucciarelli IF Elfsborg Aktiv 79 / 106 40% 1 04.09.2027 -
Luighi Palmeiras Aktiv 95 / 122 40% 1 28.08.2027 -
Owen Falconis Cerrito Aktiv 90 / 86 40% 2 25.08.2027 -
Luca Franco Arsenal Aktiv 91 / 120 40% 2 14.08.2027 -
Lucas Delgado San Miguel Aktiv 88 / 94 40% 1 12.08.2027 -
Karim El Berkaoui Al-Khaleej Aktiv 138 / 116 40% 4 09.08.2027 -
Törles Knöll Al-Ta'ee Aktiv 116 / 113 40% 1 03.08.2027 -
Younes El Bahraoui Al-Taawoun Aktiv 104 / 119 40% 2 27.07.2027 -
Elías Ayala Madryn Aktiv 123 / 106 40% 1 25.07.2027 -
Daniil Sukhoruchko Metalist Aktiv 116 / 112 40% 2 23.07.2027 -
Job Ochieng Real Sociedad Aktiv 96 / 119 40% 1 22.07.2027 -
Martin Sekulić Ural Aktiv 132 / 123 40% 4 12.07.2027 -
Peter Olayinka Al-Wehda Aktiv 138 / 114 40% 3 09.07.2027 -
David Karaev KAMAZ Aktiv 102 / 90 40% 2 08.07.2027 -
Georgy Melkadze Akhmat Grozny Aktiv 109 / 102 40% 1 04.07.2027 -
Víctor Guzmán Sporting CP Aktiv 99 / 109 40% 2 02.07.2027 -
Vladislav Sarveli Nizhniy Novgorod Aktiv 125 / 97 40% 1 29.06.2027 -
Wilfried Kanga Al-Fateh Aktiv 117 / 128 40% 1 23.06.2027 -
Moussa Koné Al-Ra'ed Aktiv 124 / 112 40% 2 20.06.2027 -
Alexandr Saplinov Volga Aktiv 83 / 93 40% 1 20.06.2027 -
Matteo Cortesi Arezzo Aktiv 121 / 108 40% 1 15.06.2027 -
Said Aliev Rotor Aktiv 94 / 86 40% 1 14.06.2027 -
Jota Silva Olympiacos Aktiv 141 / 139 40% 1 14.06.2027 -
Ruslan Apekov Torpedo Moscow Aktiv 94 / 95 40% 1 11.06.2027 -
Vyacheslav Grulev Nizhniy Novgorod Aktiv 110 / 99 40% 1 09.06.2027 -
Jassim Al-Ashban Al-Orobah Aktiv 100 / 94 40% 1 11.01.2027 -
Loreintz Rosier Al-Hazem Aktiv 128 / 115 40% 1 06.01.2027 -
Kennedy Boateng Al-Fateh Aktiv 118 / 131 40% 1 04.01.2027 -
Musab Al-Juwayr Al-Qadisiyah Aktiv 135 / 127 40% 1 01.01.2027 -
Anderson Arroyo Rubin Aktiv 129 / 120 40% 1 01.01.2027 -
Adrian Šemper Al-Fateh Aktiv 129 / 120 40% 1 31.12.2026 -
Massiré Gassama Binga Aktiv 83 / 87 40% 1 28.12.2026 -
Bogdan Ovsyannikov Orenburg Aktiv 112 / 121 40% 1 28.12.2026 -
David Sangaré Ryazan Aktiv 89 / 102 40% 2 27.12.2026 -
Evgeny Staver Rubin Aktiv 110 / 97 40% 5 26.12.2026 -
Alkalifa Coulibaly Onze Createurs Aktiv 90 / 106 40% 2 26.12.2026 -
Ilja Tuseev Chelyabinsk Aktiv 80 / 83 40% 2 25.12.2026 -
Ahmed Al-Nakhli Al-Hazem Aktiv 120 / 99 40% 1 25.12.2026 -
Joaquín Bigo Tristán Suárez Aktiv 116 / 93 40% 1 25.12.2026 -
Josh Brownhill Al-Shabab Aktiv 133 / 129 40% 1 24.12.2026 -
Manu Morlanes Mallorca Aktiv 137 / 131 40% 3 21.12.2026 -
Aschraf El Mahdioui Al-Taawoun Aktiv 126 / 119 40% 1 21.12.2026 -
Rustam Yatimov Rostov Aktiv 134 / 129 40% 4 19.12.2026 -
Denis Makarov Krylya Sovetov Aktiv 131 / 123 40% 1 18.12.2026 -
Hugo Moura Al-Fayha Aktiv 113 / 126 40% 1 14.12.2026 -
Thomas Carrique Andorra Aktiv 137 / 103 40% 1 14.12.2026 -
Saleh Abu Al-Shamat Al-Ahli Aktiv 126 / 128 40% 1 11.12.2026 -
Oleh Bilyk Epicentr Aktiv 89 / 114 40% 3 09.12.2026 -
Petr Kosarevskiy Sibir Aktiv 90 / 110 40% 2 02.12.2026 -
Mohau Nkota Al-Ettifaq Aktiv 114 / 134 40% 2 02.12.2026 -
Tyrhys Dolan Espanyol Aktiv 151 / 128 40% 2 27.11.2026 -
Isaac Matondo Koper Aktiv 89 / 101 40% 1 27.11.2026 -
Sébastien Cibois Portimonense Aktiv 97 / 110 40% 1 23.11.2026 -
Martin Zlomislić Qarabag Aktiv 102 / 122 40% 2 21.11.2026 -
Rostislav Soldatenko Torpedo Moscow Aktiv 111 / 90 40% 1 20.11.2026 -
Ivan Lomaev Ufa Aktiv 119 / 107 40% 2 19.11.2026 -
Leandro Antunes Al-Riyadh Aktiv 132 / 126 40% 1 17.11.2026 -
Samuel Brolin Kalmar FF Aktiv 124 / 120 40% 2 11.11.2026 -
Suhail Abdulla Al Wasl Aktiv 103 / 107 40% 1 10.11.2026 -
Filip Samurović Radnik Surdulica Aktiv 88 / 90 40% 1 09.11.2026 -
Maycon Cleiton Zira Aktiv 106 / 103 40% 2 08.11.2026 -
João Valido Chaves Aktiv 117 / 107 40% 2 05.11.2026 -
Crysencio Summerville Al-Hilal Aktiv 137 / 148 40% 1 31.10.2026 -
Teddy Okou Al-Riyadh Aktiv 129 / 125 40% 1 31.10.2026 -
Davit Kereselidze Dila Aktiv 109 / 118 40% 1 31.10.2026 -
Houssem Aouar Al-Ittihad Aktiv 135 / 142 40% 1 27.10.2026 -
Leonardo Marson Gubbio Aktiv 95 / 118 40% 1 27.10.2026 -
Óscar Al-Diriyah Aktiv 139 / 133 40% 1 24.10.2026 -
Juan Sebastián Serrano HIFK Aktiv 110 / 91 40% 1 20.10.2026 -
Lucas Souto Defensa y Justicia Aktiv 137 / 122 40% 1 18.10.2026 -
Angelo Fulgini Al-Khaleej Aktiv 125 / 121 40% 1 17.10.2026 -
Timur Kraikov Sokol Aktiv 82 / 98 40% 1 12.10.2026 -
Eldar Ćivić Baltika Aktiv 98 / 133 40% 1 11.10.2026 -
Dimitris Dimitriou Ermis Aktiv 98 / 93 40% 1 11.10.2026 -
Visar Bekaj Tirana Aktiv 99 / 124 40% 1 08.10.2026 -
Lechi Sadulaev Akhmat Grozny Aktiv 117 / 127 40% 1 07.10.2026 -
Johnly Yfeko Exeter City Aktiv 108 / 97 40% 1 09.09.2026 -
Pedro Rebocho Al-Khaleej Aktiv 120 / 112 40% 1 07.09.2026 -
Maro Katinić Sharjah Aktiv 119 / 125 40% 1 17.08.2026 -
Giorgos Giakoumakis Al Ain Aktiv 126 / 134 40% 1 05.08.2026 -